• Join FlightAware (Why Join?)
  • Login
  • US Flag 
05:02PM EDT


 

Airport Tracker/Info


-or-


 

Live Flight TrackerFlight Track Log ✈ N143DE ✈ 29-Jun-2013 ✈ KLRO - KRYY

Flight Track Log - Related Links

Times and Time Zones

All times are in EDT time to prevent confusion due to time zone crossing. See the N143DE flight status page for this flight to view local times or setup timezone preferences in your user account.

Time Position Orientation Groundspeed Altitude Reporting Facility
EDT Latitude Longitude Course Direction KTS MPH feet Rate Location/Type
02:20PM 32.7883 -79.7989 245° Southwest 207 238 5,400  Level Jacksonville Center
02:21PM 32.8203 -79.8200 331° Northwest 116 133 7,500 1,980 Climbing Jacksonville Center
02:22PM 32.8583 -79.8411 335° Northwest 106 122 9,400 2,040 Climbing Jacksonville Center
02:23PM 32.9008 -79.8692 331° Northwest 146 168 11,600 1,980 Climbing Jacksonville Center
02:24PM 33.0114 -80.1456 287° West  Level FlightAware Approximate
02:24PM 32.9247 -79.9106 305° West 151 174 13,400  Level Jacksonville Center
02:25PM 32.9425 -79.9594 293° West 151 174 14,900 1,440 Climbing Jacksonville Center
02:26PM 32.9561 -80.0108 288° West 162 186 16,300 1,440 Climbing Jacksonville Center
02:27PM 32.9742 -80.0672 291° West 174 200 17,800 1,380 Climbing Jacksonville Center
02:28PM 32.9878 -80.1164 288° West 174 200 19,100 1,140 Climbing Jacksonville Center
02:29PM 33.0100 -80.1728 295° West 180 207 20,100 960 Climbing Jacksonville Center
02:30PM 33.0278 -80.2342 289° West 190 219 21,100 900 Climbing Jacksonville Center
02:31PM 33.0478 -80.2931 292° West 190 219 21,900 480 Climbing Jacksonville Center
02:32PM 33.0703 -80.3692 289° West 209 241 22,100 60 Climbing Jacksonville Center
02:33PM 33.0883 -80.4381 287° West 229 264 22,100  Level Jacksonville Center
02:34PM 33.1128 -80.5119 292° West 235 270 22,100  Level Jacksonville Center
02:35PM 33.1350 -80.5881 289° West 242 278 22,100  Level Jacksonville Center
02:36PM 33.1594 -80.6644 291° West 242 278 22,100  Level Jacksonville Center
02:37PM 33.1817 -80.7433 289° West 242 278 22,100  Level Jacksonville Center
02:38PM 33.2058 -80.8172 291° West 242 278 22,100  Level Jacksonville Center
02:39PM 33.2300 -80.8961 290° West 247 284 22,100  Level Jacksonville Center
02:40PM 33.2519 -80.9725 289° West 247 284 22,100  Level Jacksonville Center
02:41PM 33.2761 -81.0467 291° West 247 284 22,100  Level Jacksonville Center
02:42PM 33.3003 -81.1256 290° West 247 284 22,100  Level Jacksonville Center
02:43PM 33.3242 -81.2022 290° West 247 284 22,100  Level Jacksonville Center
02:44PM 33.3461 -81.2814 288° West 247 284 22,100  Level Jacksonville Center
02:45PM 33.3744 -81.3653 292° West 247 284 22,100  Level Jacksonville Center
02:46PM 33.4108 -81.4881 290° West 246 283 22,100  Level Atlanta Center
02:47PM 33.4311 -81.5672 287° West 246 283 22,100  Level Atlanta Center
02:48PM 33.4578 -81.6436 293° West 246 283 22,100  Level Atlanta Center
02:49PM 33.4803 -81.7225 289° West 246 283 22,100  Level Atlanta Center
02:50PM 33.5025 -81.7992 289° West 246 283 22,100  Level Atlanta Center
02:51PM 33.5269 -81.8758 291° West 246 283 22,100  Level Atlanta Center
02:52PM 33.5489 -81.9525 289° West 246 283 22,100  Level Atlanta Center
02:53PM 33.5711 -82.0292 289° West 246 283 22,100  Level Atlanta Center
02:54PM 33.5933 -82.1061 289° West 246 283 22,100  Level Atlanta Center
02:55PM 33.6175 -82.1828 291° West 246 283 22,100 -300 Level Atlanta Center
02:56PM 33.6372 -82.2597 287° West 246 283 21,600 -780 Descending Atlanta Center
02:57PM 33.6658 -82.3564 290° West 258 297 20,600 -840 Descending Atlanta Center
02:58PM 33.6942 -82.4383 293° West 267 307 20,000 -300 Descending Atlanta Center
02:59PM 33.7181 -82.5178 290° West 261 300 20,000  Level Atlanta Center
03:00PM 33.7378 -82.5950 287° West 256 295 20,000  Level Atlanta Center
03:01PM 33.7678 -82.6694 296° West 256 295 20,000  Level Atlanta Center
03:02PM 33.7978 -82.7439 296° West 245 282 20,000  Level Atlanta Center
03:03PM 33.8236 -82.8136 294° West 245 282 20,000  Level Atlanta Center
03:04PM 33.8556 -82.8906 297° West 245 282 20,000  Level Atlanta Center
03:05PM 33.8814 -82.9553 296° West 245 282 20,000  Level Atlanta Center
03:06PM 33.9092 -83.0300 294° West 245 282 20,000 -240 Level Atlanta Center
03:07PM 33.9408 -83.1022 298° West 245 282 19,600 -660 Descending Atlanta Center
03:08PM 33.9686 -83.1797 293° West 245 282 18,700 -1,200 Descending Atlanta Center
03:09PM 33.9983 -83.2544 296° West 245 282 17,300 -1,320 Descending Atlanta Center
03:10PM 34.0300 -83.3294 297° West 250 288 16,100 -1,140 Descending Atlanta Center
03:11PM 34.0597 -83.4069 295° West 250 288 15,100 -1,020 Descending Atlanta Center
03:12PM 34.0914 -83.4869 296° West 250 288 14,100 -960 Descending Atlanta Center
03:13PM 34.1169 -83.5569 294° West 245 282 13,200 -960 Descending Atlanta Center
03:14PM 34.1483 -83.6322 297° West 245 282 12,200 -1,080 Descending Atlanta Center
03:15PM 34.1736 -83.7047 293° West 240 276 11,100 -1,020 Descending Atlanta Center
03:16PM 34.2008 -83.7750 295° West 234 269 10,200 -900 Descending Atlanta Center
03:17PM 34.2283 -83.8403 297° West 234 269 9,300 -1,440 Descending Atlanta Center
03:18PM 34.2533 -83.9106 293° West 229 264 7,400 -1,200 Descending Atlanta Center
03:19PM 34.2806 -83.9758 297° West 224 258 7,000 -240 Descending Atlanta Center
03:20PM 34.3014 -84.0339 293° West 201 231 7,000  Level Atlanta Center
03:21PM 34.2825 -84.0817 244° Southwest 160 184 7,000 -240 Level Atlanta Center
03:22PM 34.2431 -84.1317 226° Southwest 177 204 6,600 -720 Descending Atlanta Center
03:23PM 34.2075 -84.1869 232° Southwest 208 239 5,600 -900 Descending Atlanta Center
03:24PM 34.1739 -84.2347 230° Southwest 214 246 4,900 -840 Descending Atlanta Center
03:25PM 34.1364 -84.2897 231° Southwest 214 246 4,000 -540 Descending Atlanta Center
03:26PM 34.1000 -84.3333 225° Southwest 193 222 4,000 -120 Level Atlanta TRACON
03:27PM 34.0667 -84.4000 239° Southwest 198 228 3,800 -360 Descending Atlanta TRACON
03:28PM 34.0442 -84.4500 242° Southwest 194 223 3,300 -660 Descending Atlanta Center
03:30PM 34.0167 -84.5333 248° West 131 151 1,900 -780 Descending Atlanta TRACON
03:32PM 34.0000 -84.5833 248° West  Level FlightAware Approximate
03:39PM 34.0132 -84.5971 248° West  Level Estimated
03:40PM 34.0132 -84.5971 248° West  Level Estimated
03:41PM 34.0132 -84.5971 248° West  Level Estimated
03:42PM 34.0132 -84.5971 248° West  Level Estimated
03:43PM 34.0132 -84.5971 248° West  Level Estimated
03:44PM 34.0132 -84.5971 248° West  Level Estimated
03:45PM 34.0132 -84.5971 248° West  Level Estimated
03:46PM 34.0132 -84.5971 248° West  Level Estimated
03:47PM 34.0132 -84.5971 248° West  Level Estimated
03:48PM 34.0132 -84.5971 248° West  Level Estimated
03:49PM 34.0132 -84.5971 248° West  Level Estimated
03:50PM 34.0132 -84.5971 248° West  Level Estimated
03:51PM 34.0132 -84.5971 248° West  Level Estimated